createdAt,value
2019-05-09T00:00:04.346Z,12.80
2019-05-09T00:03:29.355Z,12.70
2019-05-09T00:06:54.443Z,12.48
2019-05-09T00:10:17.415Z,12.45
2019-05-09T00:13:40.481Z,12.44
2019-05-09T00:17:03.871Z,12.69
2019-05-09T00:20:47.633Z,12.63
2019-05-09T00:24:10.782Z,12.66
2019-05-09T00:27:34.113Z,12.60
2019-05-09T00:31:05.557Z,12.77
2019-05-09T00:34:36.218Z,12.83
2019-05-09T00:38:19.000Z,12.37
2019-05-09T00:41:43.527Z,12.41
2019-05-09T00:45:10.216Z,12.48
2019-05-09T00:48:39.679Z,12.55
2019-05-09T00:52:03.629Z,12.77
2019-05-09T00:55:28.220Z,12.37
2019-05-09T00:58:53.235Z,12.61
2019-05-09T01:02:16.184Z,12.66
2019-05-09T01:05:39.340Z,12.27
2019-05-09T01:09:04.428Z,12.58
2019-05-09T01:12:27.491Z,12.53
2019-05-09T01:15:50.517Z,12.47
2019-05-09T01:19:14.206Z,12.48
2019-05-09T01:22:37.369Z,12.57
2019-05-09T01:26:00.548Z,12.39
2019-05-09T01:29:23.606Z,12.36
2019-05-09T01:33:06.292Z,12.23
2019-05-09T01:36:48.043Z,12.32
2019-05-09T01:40:13.203Z,12.19
2019-05-09T01:43:36.749Z,11.92
2019-05-09T01:46:59.905Z,12.15
2019-05-09T01:50:23.386Z,12.01
2019-05-09T01:53:53.187Z,12.06
2019-05-09T01:57:16.347Z,12.07
2019-05-09T02:00:39.375Z,12.10
2019-05-09T02:04:04.053Z,12.01
2019-05-09T02:07:27.317Z,11.77
2019-05-09T02:10:50.743Z,11.64
2019-05-09T02:14:16.127Z,11.65
2019-05-09T02:18:05.353Z,11.40
2019-05-09T02:21:28.855Z,11.79
2019-05-09T02:24:53.473Z,11.77
2019-05-09T02:28:16.705Z,11.77
2019-05-09T02:31:39.697Z,11.91
2019-05-09T02:35:05.250Z,11.81
2019-05-09T02:38:28.850Z,11.57
2019-05-09T02:42:05.037Z,11.73
2019-05-09T02:45:19.274Z,11.69
2019-05-09T02:48:42.619Z,11.25
2019-05-09T02:52:08.664Z,11.38
2019-05-09T02:55:30.814Z,11.59
2019-05-09T02:59:00.702Z,11.56
2019-05-09T03:02:31.148Z,11.48
2019-05-09T03:05:54.109Z,11.54
2019-05-09T03:09:19.009Z,11.39
2019-05-09T03:12:42.273Z,11.50
2019-05-09T03:16:11.893Z,11.59
2019-05-09T03:19:38.610Z,11.59
2019-05-09T03:23:00.989Z,11.60
2019-05-09T03:26:29.243Z,11.54
2019-05-09T03:29:58.704Z,11.31
2019-05-09T03:33:20.555Z,11.43
2019-05-09T03:36:43.759Z,11.37
2019-05-09T03:40:07.884Z,11.21
2019-05-09T03:43:31.447Z,11.46
2019-05-09T03:47:08.422Z,11.46
2019-05-09T03:50:31.881Z,11.42
2019-05-09T03:53:54.948Z,11.27
2019-05-09T03:57:28.216Z,11.09
2019-05-09T04:00:50.999Z,11.35
2019-05-09T04:04:14.251Z,11.12
2019-05-09T04:07:38.441Z,11.21
2019-05-09T04:11:01.813Z,11.20
2019-05-09T04:14:28.168Z,11.12
2019-05-09T04:17:51.488Z,10.96
2019-05-09T04:21:14.591Z,10.85
2019-05-09T04:24:38.377Z,10.82
2019-05-09T04:28:02.746Z,11.06
2019-05-09T04:31:28.026Z,11.05
2019-05-09T04:34:52.399Z,10.97
2019-05-09T04:38:17.747Z,10.96
2019-05-09T04:41:40.585Z,11.10
2019-05-09T04:45:14.571Z,11.29
2019-05-09T04:48:37.759Z,11.36
2019-05-09T04:52:00.822Z,11.14
2019-05-09T04:55:27.352Z,11.19
2019-05-09T04:58:50.582Z,11.34
2019-05-09T05:02:38.204Z,11.36
2019-05-09T05:06:01.559Z,11.39
2019-05-09T05:09:24.730Z,11.23
2019-05-09T05:12:48.424Z,11.65
2019-05-09T05:16:11.554Z,11.90
2019-05-09T05:19:36.209Z,11.99
2019-05-09T05:23:18.495Z,12.13
2019-05-09T05:26:41.497Z,12.40
2019-05-09T05:30:07.478Z,12.32
2019-05-09T05:33:45.707Z,12.10
2019-05-09T05:37:12.287Z,12.63
2019-05-09T05:40:43.246Z,12.81
2019-05-09T05:44:00.254Z,12.42
2019-05-09T05:47:30.050Z,12.78
2019-05-09T05:50:54.122Z,12.33
2019-05-09T05:54:21.110Z,12.41
2019-05-09T05:57:44.170Z,12.61
2019-05-09T06:01:08.203Z,12.72
2019-05-09T06:04:31.530Z,12.69
2019-05-09T06:07:57.486Z,12.89
2019-05-09T06:11:20.453Z,13.16
2019-05-09T06:14:43.563Z,12.83
2019-05-09T06:18:07.934Z,12.76
2019-05-09T06:21:31.336Z,12.29
2019-05-09T06:24:54.397Z,12.89
2019-05-09T06:28:18.256Z,12.60
2019-05-09T06:31:41.745Z,12.86
2019-05-09T06:35:05.002Z,12.91
2019-05-09T06:38:28.360Z,12.72
2019-05-09T06:41:51.629Z,13.42
2019-05-09T06:46:02.051Z,13.45
2019-05-09T06:49:31.733Z,13.22
2019-05-09T06:52:54.045Z,12.95
2019-05-09T06:56:17.831Z,13.26
2019-05-09T06:59:41.047Z,13.40
2019-05-09T07:03:14.413Z,13.37
2019-05-09T07:06:41.514Z,13.05
2019-05-09T07:10:07.407Z,13.30
2019-05-09T07:13:31.682Z,13.60
2019-05-09T07:16:55.385Z,13.53
2019-05-09T07:20:18.446Z,14.05
2019-05-09T07:23:41.475Z,14.04
2019-05-09T07:27:04.784Z,13.95
2019-05-09T07:30:57.354Z,13.77
2019-05-09T07:34:47.456Z,14.12
2019-05-09T07:38:11.329Z,14.08
2019-05-09T07:41:34.362Z,13.92
2019-05-09T07:44:59.153Z,14.03
2019-05-09T07:48:22.511Z,14.24
2019-05-09T07:51:47.649Z,14.34
2019-05-09T07:55:10.590Z,14.54
2019-05-09T07:58:33.612Z,14.41
2019-05-09T08:01:58.168Z,14.69
2019-05-09T08:05:28.168Z,15.06
2019-05-09T08:08:51.278Z,14.79
2019-05-09T08:12:14.336Z,14.81
2019-05-09T08:15:38.441Z,14.83
2019-05-09T08:19:01.842Z,15.13
2019-05-09T08:22:31.548Z,14.79
2019-05-09T08:25:51.143Z,14.55
2019-05-09T08:29:14.733Z,15.18
2019-05-09T08:32:38.059Z,15.00
2019-05-09T08:36:01.561Z,14.95
2019-05-09T08:39:24.725Z,15.46
2019-05-09T08:42:48.207Z,15.85
2019-05-09T08:46:12.334Z,15.99
2019-05-09T08:49:49.437Z,16.33
2019-05-09T08:53:12.289Z,16.52
2019-05-09T08:56:35.340Z,16.46
2019-05-09T08:59:59.033Z,16.44
2019-05-09T09:03:22.764Z,17.26
2019-05-09T09:06:48.279Z,17.78
2019-05-09T09:10:11.978Z,17.61
2019-05-09T09:13:35.043Z,17.92
2019-05-09T09:16:58.080Z,18.11
2019-05-09T09:20:22.133Z,17.47
2019-05-09T09:23:49.734Z,17.62
2019-05-09T09:27:10.789Z,17.66
2019-05-09T09:30:33.849Z,17.95
2019-05-09T09:33:58.585Z,17.75
2019-05-09T09:37:22.325Z,17.89
2019-05-09T09:40:47.584Z,17.79
2019-05-09T09:44:10.769Z,18.32
2019-05-09T09:47:33.955Z,18.84
2019-05-09T09:50:57.971Z,18.08
2019-05-09T09:54:21.568Z,18.94
2019-05-09T09:57:44.639Z,18.99
2019-05-09T10:01:28.717Z,18.79
2019-05-09T10:04:51.261Z,19.00
2019-05-09T10:08:14.432Z,18.85
2019-05-09T10:11:37.977Z,19.88
2019-05-09T10:15:29.759Z,19.92
2019-05-09T10:19:18.613Z,18.99
2019-05-09T10:22:46.503Z,19.03
2019-05-09T10:26:08.501Z,19.68
2019-05-09T10:29:31.869Z,19.35
2019-05-09T10:32:55.013Z,21.10
2019-05-09T10:36:18.126Z,19.36
2019-05-09T10:39:42.059Z,19.52
2019-05-09T10:43:35.963Z,18.73
2019-05-09T10:47:12.042Z,18.48
2019-05-09T10:50:43.172Z,20.70
2019-05-09T10:54:00.569Z,22.24
2019-05-09T10:57:23.963Z,22.13
2019-05-09T11:00:48.300Z,22.57
2019-05-09T11:04:11.663Z,22.26
2019-05-09T11:07:35.140Z,22.02
2019-05-09T11:10:58.184Z,20.69
2019-05-09T11:14:32.179Z,22.08
2019-05-09T11:17:47.429Z,19.91
2019-05-09T11:21:11.097Z,20.34
2019-05-09T11:24:44.899Z,18.94
2019-05-09T11:28:10.978Z,20.04
2019-05-09T11:31:25.072Z,19.18
2019-05-09T11:34:48.741Z,19.74
2019-05-09T11:38:12.343Z,19.41
2019-05-09T11:41:38.384Z,19.96
2019-05-09T11:45:01.863Z,19.78
2019-05-09T11:48:25.029Z,20.43
2019-05-09T11:51:48.383Z,20.88
2019-05-09T11:55:28.814Z,20.34
2019-05-09T11:58:37.961Z,20.76
2019-05-09T12:02:01.427Z,21.36
2019-05-09T12:05:24.445Z,21.56
2019-05-09T12:08:48.254Z,22.81
2019-05-09T12:12:11.781Z,23.65
2019-05-09T12:15:34.849Z,23.04
2019-05-09T12:18:58.382Z,25.80
2019-05-09T12:22:21.828Z,24.87
2019-05-09T12:25:44.967Z,25.68
2019-05-09T12:29:08.763Z,26.75
2019-05-09T12:32:32.245Z,23.65
2019-05-09T12:35:55.373Z,23.72
2019-05-09T12:39:18.910Z,23.04
2019-05-09T12:42:42.252Z,24.11
2019-05-09T12:46:08.461Z,24.29
2019-05-09T12:49:30.284Z,23.07
2019-05-09T12:52:53.385Z,24.20
2019-05-09T12:56:18.790Z,23.27
2019-05-09T12:59:49.004Z,22.35
2019-05-09T13:03:08.392Z,22.25
2019-05-09T13:06:31.735Z,22.50
2019-05-09T13:09:54.754Z,22.26
2019-05-09T13:13:19.649Z,21.20
2019-05-09T13:17:04.449Z,21.96
2019-05-09T13:20:28.582Z,21.53
2019-05-09T13:23:52.580Z,20.80
2019-05-09T13:27:15.643Z,21.77
2019-05-09T13:30:38.825Z,21.80
2019-05-09T13:34:02.022Z,22.50
2019-05-09T13:37:29.369Z,22.99
2019-05-09T13:40:53.470Z,24.25
2019-05-09T13:44:17.857Z,24.29
2019-05-09T13:47:40.871Z,22.06
2019-05-09T13:51:04.056Z,22.91
2019-05-09T13:54:28.511Z,22.87
2019-05-09T13:57:51.841Z,21.81
2019-05-09T14:01:17.417Z,21.85
2019-05-09T14:04:40.342Z,21.60
2019-05-09T14:08:04.454Z,21.24
2019-05-09T14:11:29.203Z,20.65
2019-05-09T14:14:52.517Z,20.30
2019-05-09T14:18:16.630Z,20.65
2019-05-09T14:21:40.729Z,19.79
2019-05-09T14:25:07.166Z,19.90
2019-05-09T14:28:29.291Z,20.18
2019-05-09T14:31:52.390Z,19.85
2019-05-09T14:35:17.946Z,19.57
2019-05-09T14:38:40.509Z,20.26
2019-05-09T14:42:03.598Z,20.75
2019-05-09T14:45:27.990Z,21.40
2019-05-09T14:48:51.126Z,22.13
2019-05-09T14:52:14.141Z,22.67
2019-05-09T14:55:38.804Z,23.92
2019-05-09T14:59:02.227Z,23.40
2019-05-09T15:02:25.299Z,23.49
2019-05-09T15:05:48.425Z,25.82
2019-05-09T15:09:11.447Z,26.72
2019-05-09T15:12:34.656Z,27.22
2019-05-09T15:15:58.033Z,28.53
2019-05-09T15:19:21.283Z,26.31
2019-05-09T15:22:44.377Z,25.63
2019-05-09T15:26:07.809Z,25.36
2019-05-09T15:29:31.105Z,26.64
2019-05-09T15:32:54.183Z,25.48
2019-05-09T15:36:19.217Z,23.96
2019-05-09T15:39:42.403Z,26.79
2019-05-09T15:43:08.136Z,28.85
2019-05-09T15:46:38.420Z,30.57
2019-05-09T15:50:15.481Z,31.83
2019-05-09T15:53:27.828Z,30.74
2019-05-09T15:56:50.976Z,27.86
2019-05-09T16:00:19.084Z,26.80
2019-05-09T16:03:43.226Z,24.26
2019-05-09T16:07:06.325Z,22.63
2019-05-09T16:10:29.702Z,22.95
2019-05-09T16:13:53.532Z,22.70
2019-05-09T16:17:19.102Z,21.88
2019-05-09T16:20:42.600Z,21.49
2019-05-09T16:24:08.168Z,21.61
2019-05-09T16:27:31.028Z,21.54
2019-05-09T16:30:58.562Z,21.28
2019-05-09T16:34:21.693Z,21.27
2019-05-09T16:38:00.792Z,20.82
2019-05-09T16:41:12.031Z,20.86
2019-05-09T16:44:41.713Z,20.70
2019-05-09T16:48:04.748Z,20.88
2019-05-09T16:51:28.859Z,20.99
2019-05-09T16:55:02.865Z,21.22
2019-05-09T16:58:27.442Z,21.58
2019-05-09T17:01:50.734Z,21.25
2019-05-09T17:05:14.069Z,20.84
2019-05-09T17:08:38.557Z,20.47
2019-05-09T17:12:01.636Z,19.78
2019-05-09T17:15:25.059Z,20.02
2019-05-09T17:18:50.014Z,20.34
2019-05-09T17:22:17.811Z,20.05
2019-05-09T17:25:40.789Z,19.13
2019-05-09T17:29:03.934Z,19.68
2019-05-09T17:32:28.506Z,20.01
2019-05-09T17:35:51.742Z,19.88
2019-05-09T17:39:15.087Z,19.84
2019-05-09T17:42:38.305Z,19.77
2019-05-09T17:46:01.834Z,19.72
2019-05-09T17:49:24.892Z,19.60
2019-05-09T17:52:48.212Z,19.77
2019-05-09T17:56:11.343Z,19.67
2019-05-09T17:59:34.575Z,19.68
2019-05-09T18:02:58.045Z,19.74
2019-05-09T18:06:21.247Z,19.54
2019-05-09T18:09:45.419Z,19.48
2019-05-09T18:13:08.416Z,19.50
2019-05-09T18:16:31.493Z,19.31
2019-05-09T18:19:54.685Z,19.03
2019-05-09T18:23:22.656Z,19.01
2019-05-09T18:26:47.445Z,18.81
2019-05-09T18:30:10.904Z,18.88
2019-05-09T18:33:58.216Z,18.58
2019-05-09T18:37:21.915Z,19.08
2019-05-09T18:40:45.021Z,18.70
2019-05-09T18:44:08.315Z,18.55
2019-05-09T18:47:31.390Z,18.39
2019-05-09T18:50:54.437Z,18.24
2019-05-09T18:54:17.656Z,17.65
2019-05-09T18:57:40.707Z,16.24
2019-05-09T19:01:03.994Z,15.26
2019-05-09T19:04:27.826Z,14.86
2019-05-09T19:07:50.978Z,14.69
2019-05-09T19:11:14.452Z,14.45
2019-05-09T19:14:37.732Z,14.09
2019-05-09T19:18:07.545Z,14.10
2019-05-09T19:21:37.484Z,14.42
2019-05-09T19:25:00.837Z,13.97
2019-05-09T19:28:24.539Z,13.68
2019-05-09T19:31:48.130Z,13.87
2019-05-09T19:35:11.790Z,14.16
2019-05-09T19:38:34.953Z,13.72
2019-05-09T19:41:59.386Z,13.60
2019-05-09T19:45:22.954Z,14.03
2019-05-09T19:48:46.674Z,13.61
2019-05-09T19:52:10.507Z,13.71
2019-05-09T19:55:36.361Z,13.90
2019-05-09T19:59:02.428Z,13.75
2019-05-09T20:02:25.552Z,13.37
2019-05-09T20:05:48.620Z,13.56
2019-05-09T20:09:19.001Z,13.45
2019-05-09T20:12:48.178Z,13.59
2019-05-09T20:16:11.606Z,14.00
2019-05-09T20:19:34.689Z,13.70
2019-05-09T20:22:58.038Z,14.22
2019-05-09T20:26:21.374Z,13.98
2019-05-09T20:29:44.462Z,14.07
2019-05-09T20:33:08.836Z,14.10
2019-05-09T20:36:31.919Z,13.91
2019-05-09T20:39:55.025Z,14.20
2019-05-09T20:43:18.128Z,14.27
2019-05-09T20:46:41.269Z,13.76
2019-05-09T20:50:04.413Z,13.58
2019-05-09T20:53:27.719Z,13.67
2019-05-09T20:56:50.830Z,13.53
2019-05-09T21:00:13.917Z,13.71
2019-05-09T21:03:36.956Z,13.85
2019-05-09T21:07:00.031Z,13.74
2019-05-09T21:10:25.099Z,13.55
2019-05-09T21:13:49.124Z,13.82
2019-05-09T21:17:12.519Z,13.91
2019-05-09T21:20:35.739Z,14.01
2019-05-09T21:23:58.886Z,14.21
2019-05-09T21:27:22.002Z,14.34
2019-05-09T21:30:45.097Z,14.01
2019-05-09T21:34:08.131Z,14.17
2019-05-09T21:37:31.155Z,14.72
2019-05-09T21:40:54.292Z,14.35
2019-05-09T21:44:17.396Z,14.41
2019-05-09T21:47:40.490Z,14.02
2019-05-09T21:51:03.608Z,14.34
2019-05-09T21:54:26.699Z,14.40
2019-05-09T21:57:49.788Z,14.25
2019-05-09T22:01:16.781Z,14.44
2019-05-09T22:04:39.989Z,14.12
2019-05-09T22:08:04.153Z,14.15
2019-05-09T22:11:29.840Z,13.77
2019-05-09T22:14:53.106Z,13.67
2019-05-09T22:18:16.390Z,13.88
2019-05-09T22:21:39.587Z,14.40
2019-05-09T22:25:02.807Z,14.00
2019-05-09T22:28:26.266Z,13.93
2019-05-09T22:31:49.455Z,13.88
2019-05-09T22:35:12.993Z,14.18
2019-05-09T22:38:36.062Z,13.75
2019-05-09T22:42:00.415Z,13.78
2019-05-09T22:45:23.516Z,13.92
2019-05-09T22:48:47.412Z,13.72
2019-05-09T22:52:10.637Z,13.42
2019-05-09T22:55:33.683Z,13.48
2019-05-09T22:58:56.698Z,13.52
2019-05-09T23:02:19.832Z,13.53
2019-05-09T23:05:43.032Z,13.60
2019-05-09T23:09:06.983Z,13.39
2019-05-09T23:12:30.005Z,13.30
2019-05-09T23:15:53.094Z,13.35
2019-05-09T23:19:16.144Z,13.56
2019-05-09T23:22:39.249Z,13.68
2019-05-09T23:26:02.271Z,13.92
2019-05-09T23:29:25.273Z,13.82
2019-05-09T23:32:49.277Z,13.68
2019-05-09T23:36:12.612Z,13.43
2019-05-09T23:39:41.440Z,13.12
2019-05-09T23:43:04.443Z,13.61
2019-05-09T23:46:30.510Z,14.02
2019-05-09T23:49:53.557Z,14.00
2019-05-09T23:53:33.195Z,13.85
2019-05-09T23:57:14.923Z,13.66
